Athens, Michigan
Current Conditions -  °F | °C
As of 3:54 AM on Friday 24 Oct 2014 (Local Time) from KOEB Reporting Station
Haze Haze  
Wind Chill: 38°   Ceiling: 8000
Heat Index: 38°   Visibility: 5mi
Dew Point: 37°   Wind: 0mph
Humidity: 97%   Direction: NA
Pressure: 30.08"   Gusts: NA
Location:  42.09°N, 85.23°W
Report Text: KOEB 240754Z AUTO 00000KT 5SM BR OVC080 04/03 A3008 RMK AO2 T00350030
Loading
Personal Weather Stations






























Interactive Weather Map New forecast layout! Learn more

10-Day Weather Forecast

Advertisements
Track Severe Weather on mobile